WMKK

Kuala Lumpur International Airport

Kuala Lumpur, Malaysia
TAF WMKK 251100Z 2512/2618 VRB03KT 9999 FEW018 PROB30 TEMPO 2514/2518 23008KT 4000 TSRA FEW015CB SCT018 BECMG 2519/2520 VRB03KT FEW030 BECMG 2600/2602 16005KT FEW017CB
Issued Valid From Valid To
Sep-25 @ 11:00 UTC
(4 hours ago)
Sep-25 @ 12:00 UTC
(3 hours ago)
Sep-26 @ 18:00 UTC
(-1 days ago)
Sep-25 @ 12:00 to Sep-25 @ 19:00
TAF WMKK 251100Z 2512/2618 VRB03KT 9999 FEW018
Wind Visibility Clouds
Variable at 3 knots 10,000+ meters
  • Few at 1,800' AGL
Temporary  (Probability 30%) Sep-25 @ 14:00 to Sep-25 @ 18:00
PROB30 TEMPO 2514/2518 23008KT 4000 TSRA FEW015CB SCT018
Wind Visibility Clouds Conditions
230° at 8 knots 4,007 meters
  • Few at 1,500' AGL
  • Scattered at 1,800' AGL
  • Thunderstorm
  • Rain
Becoming Sep-25 @ 19:00 to Sep-26 @ 00:00
BECMG 2519/2520 VRB03KT FEW030
Wind Visibility Clouds
Variable at 3 knots 10,000+ meters
  • Few at 3,000' AGL
Becoming Sep-26 @ 00:00 to Sep-26 @ 18:00
BECMG 2600/2602 16005KT FEW017CB
Wind Visibility Clouds
160° at 5 knots 10,000+ meters
  • Few at 1,700' AGL
TAF WMKK 251100Z 2512/2618 VRB03KT 9999 FEW018 PROB30 TEMPO 2514/2518 23008KT 4000 TSRA FEW015CB SCT018 BECMG 2519/2520 VRB03KT FEW030 BECMG 2600/2602 16005KT FEW017CB
Issued Sep-25 @ 11:00 UTC
(4 hours ago)
Valid From Sep-25 @ 12:00 UTC
(3 hours ago)
Valid To Sep-26 @ 18:00 UTC
(-1 days ago)
Sep-25 @ 12:00 - Sep-25 @ 19:00
Wind Visibility
Variable at 3 knots 10,000+ meters
Clouds
  • Few at 1,800' AGL
Probability 30% Temporary Sep-25 @ 14:00 - Sep-25 @ 18:00
Wind Visibility
230° at 8 knots 4,007 meters
Clouds
  • Few at 1,500' AGL
  • Scattered at 1,800' AGL
Conditions
  • Thunderstorm
  • Rain
Becoming Sep-25 @ 19:00 - Sep-26 @ 00:00
Wind Visibility
Variable at 3 knots 10,000+ meters
Clouds
  • Few at 3,000' AGL
Becoming Sep-26 @ 00:00 - Sep-26 @ 18:00
Wind Visibility
160° at 5 knots 10,000+ meters
Clouds
  • Few at 1,700' AGL